createdAt,value
2017-01-21T00:00:16.559Z,0
2017-01-21T00:01:16.526Z,0
2017-01-21T00:02:16.496Z,0
2017-01-21T00:03:16.065Z,0
2017-01-21T00:04:16.847Z,0
2017-01-21T00:05:16.064Z,0
2017-01-21T00:06:16.420Z,0
2017-01-21T00:07:15.963Z,0
2017-01-21T00:08:16.740Z,0
2017-01-21T00:09:16.312Z,0
2017-01-21T00:10:16.682Z,0
2017-01-21T00:11:16.304Z,0
2017-01-21T00:12:16.222Z,0
2017-01-21T00:13:16.606Z,0
2017-01-21T00:14:16.165Z,0
2017-01-21T00:15:16.549Z,0
2017-01-21T00:16:16.520Z,0
2017-01-21T00:17:16.089Z,0
2017-01-21T00:18:16.066Z,0
2017-01-21T00:19:16.047Z,0
2017-01-21T00:20:15.597Z,0
2017-01-21T00:21:16.372Z,0
2017-01-21T00:22:15.624Z,0
2017-01-21T00:23:15.520Z,0
2017-01-21T00:24:16.344Z,0
2017-01-21T00:25:15.471Z,0
2017-01-21T00:26:15.433Z,0
2017-01-21T00:27:15.819Z,0
2017-01-21T00:28:15.383Z,0
2017-01-21T00:29:15.360Z,0
2017-01-21T00:30:16.131Z,0
2017-01-21T00:31:15.306Z,0
2017-01-21T00:32:16.086Z,0
2017-01-21T00:33:16.099Z,0
2017-01-21T00:34:15.244Z,0
2017-01-21T00:35:14.793Z,0
2017-01-21T00:36:15.563Z,0
2017-01-21T00:37:15.147Z,0
2017-01-21T00:38:15.197Z,0
2017-01-21T00:39:15.496Z,0
2017-01-21T00:40:15.876Z,0
2017-01-21T00:41:15.525Z,0
2017-01-21T00:42:15.061Z,0
2017-01-21T00:43:14.578Z,0
2017-01-21T00:44:15.343Z,0
2017-01-21T00:45:14.941Z,0
2017-01-21T00:46:15.709Z,0
2017-01-21T00:47:15.260Z,0
2017-01-21T00:48:14.849Z,0
2017-01-21T00:49:14.811Z,0
2017-01-21T00:50:15.188Z,0
2017-01-21T00:51:15.617Z,0
2017-01-21T00:52:15.567Z,0
2017-01-21T00:53:15.113Z,0
2017-01-21T00:54:15.487Z,0
2017-01-21T00:55:14.672Z,0
2017-01-21T00:56:15.044Z,0
2017-01-21T00:57:15.400Z,0
2017-01-21T00:58:15.386Z,0
2017-01-21T00:59:14.952Z,0
2017-01-21T01:00:14.921Z,0
2017-01-21T01:01:14.901Z,0
2017-01-21T01:02:14.850Z,0
2017-01-21T01:03:14.440Z,0
2017-01-21T01:04:14.819Z,0
2017-01-21T01:05:14.388Z,0
2017-01-21T01:06:14.755Z,0
2017-01-21T01:07:14.728Z,0
2017-01-21T01:08:15.107Z,0
2017-01-21T01:09:14.673Z,0
2017-01-21T01:10:14.662Z,0
2017-01-21T01:11:14.624Z,0
2017-01-21T01:12:14.593Z,0
2017-01-21T01:13:15.053Z,0
2017-01-21T01:14:14.529Z,0
2017-01-21T01:15:14.527Z,0
2017-01-21T01:16:14.511Z,0
2017-01-21T01:17:14.457Z,0
2017-01-21T01:18:14.418Z,0
2017-01-21T01:19:14.007Z,0
2017-01-21T01:20:14.380Z,0
2017-01-21T01:21:13.959Z,0
2017-01-21T01:22:13.937Z,0
2017-01-21T01:23:13.888Z,0
2017-01-21T01:24:13.877Z,0
2017-01-21T01:25:14.646Z,0
2017-01-21T01:26:14.224Z,0
2017-01-21T01:27:13.781Z,0
2017-01-21T01:28:14.160Z,0
2017-01-21T01:29:13.731Z,0
2017-01-21T01:30:14.101Z,0
2017-01-21T01:31:13.279Z,0
2017-01-21T01:32:14.060Z,0
2017-01-21T01:33:14.039Z,0
2017-01-21T01:34:14.001Z,0
2017-01-21T01:35:14.082Z,0
2017-01-21T01:36:13.543Z,0
2017-01-21T01:37:14.320Z,0
2017-01-21T01:38:13.542Z,0
2017-01-21T01:39:14.265Z,0
2017-01-21T01:40:12.616Z,0
2017-01-21T01:41:13.418Z,0
2017-01-21T01:42:13.782Z,0
2017-01-21T01:43:13.370Z,0
2017-01-21T01:44:14.147Z,0
2017-01-21T01:45:13.693Z,0
2017-01-21T01:46:14.135Z,0
2017-01-21T01:47:13.651Z,0
2017-01-21T01:48:13.215Z,0
2017-01-21T01:49:13.583Z,0
2017-01-21T01:50:13.573Z,0
2017-01-21T01:51:13.949Z,0
2017-01-21T01:52:13.500Z,0
2017-01-21T01:53:13.922Z,0
2017-01-21T01:54:13.901Z,0
2017-01-21T01:55:13.890Z,0
2017-01-21T01:56:12.997Z,0
2017-01-21T01:57:12.665Z,0
2017-01-21T01:58:12.534Z,0
2017-01-21T01:59:13.318Z,0
2017-01-21T02:00:12.982Z,0
2017-01-21T02:01:13.311Z,0
2017-01-21T02:02:12.826Z,0
2017-01-21T02:03:12.807Z,0
2017-01-21T02:04:12.373Z,0
2017-01-21T02:05:12.751Z,0
2017-01-21T02:06:12.719Z,0
2017-01-21T02:07:12.304Z,0
2017-01-21T02:08:13.484Z,0
2017-01-21T02:09:13.074Z,0
2017-01-21T02:10:11.802Z,0
2017-01-21T02:11:12.581Z,0
2017-01-21T02:12:13.428Z,0
2017-01-21T02:13:12.931Z,0
2017-01-21T02:14:12.117Z,0
2017-01-21T02:15:13.290Z,0
2017-01-21T02:16:12.443Z,0
2017-01-21T02:17:12.829Z,0
2017-01-21T02:18:12.908Z,0
2017-01-21T02:19:13.188Z,0
2017-01-21T02:20:12.358Z,0
2017-01-21T02:21:11.915Z,0
2017-01-21T02:22:11.885Z,0
2017-01-21T02:23:11.988Z,0
2017-01-21T02:24:13.076Z,0
2017-01-21T02:25:11.866Z,0
2017-01-21T02:26:12.223Z,0
2017-01-21T02:27:12.550Z,0
2017-01-21T02:28:12.535Z,0
2017-01-21T02:29:12.099Z,0
2017-01-21T02:30:12.591Z,0
2017-01-21T02:31:12.032Z,0
2017-01-21T02:32:12.418Z,0
2017-01-21T02:33:12.401Z,0
2017-01-21T02:34:12.359Z,0
2017-01-21T02:35:12.738Z,0
2017-01-21T02:36:12.818Z,0
2017-01-21T02:37:12.319Z,0
2017-01-21T02:38:12.258Z,0
2017-01-21T02:39:11.828Z,0
2017-01-21T02:40:11.838Z,0
2017-01-21T02:41:12.564Z,0
2017-01-21T02:42:11.781Z,0
2017-01-21T02:43:12.118Z,0
2017-01-21T02:44:11.696Z,0
2017-01-21T02:45:11.665Z,0
2017-01-21T02:46:12.441Z,0
2017-01-21T02:47:12.004Z,0
2017-01-21T02:48:11.590Z,0
2017-01-21T02:49:11.590Z,0
2017-01-21T02:50:11.533Z,0
2017-01-21T02:51:11.093Z,0
2017-01-21T02:52:11.942Z,0
2017-01-21T02:53:11.062Z,0
2017-01-21T02:54:11.824Z,0
2017-01-21T02:55:11.401Z,0
2017-01-21T02:56:11.763Z,0
2017-01-21T02:57:10.932Z,0
2017-01-21T02:58:10.939Z,0
2017-01-21T02:59:11.689Z,0
2017-01-21T03:00:11.655Z,0
2017-01-21T03:01:11.288Z,0
2017-01-21T03:02:10.788Z,0
2017-01-21T03:03:11.167Z,0
2017-01-21T03:04:11.546Z,0
2017-01-21T03:05:11.545Z,0
2017-01-21T03:06:11.084Z,0
2017-01-21T03:07:11.468Z,0
2017-01-21T03:08:11.434Z,0
2017-01-21T03:09:10.605Z,0
2017-01-21T03:10:11.383Z,0
2017-01-21T03:11:11.763Z,0
2017-01-21T03:12:11.731Z,0
2017-01-21T03:13:11.309Z,0
2017-01-21T03:14:11.732Z,0
2017-01-21T03:15:10.845Z,0
2017-01-21T03:16:10.830Z,0
2017-01-21T03:17:11.192Z,0
2017-01-21T03:18:10.767Z,0
2017-01-21T03:19:11.568Z,0
2017-01-21T03:20:11.259Z,0
2017-01-21T03:21:10.268Z,0
2017-01-21T03:22:10.245Z,0
2017-01-21T03:23:10.225Z,0
2017-01-21T03:24:11.006Z,0
2017-01-21T03:25:11.473Z,0
2017-01-21T03:26:11.373Z,0
2017-01-21T03:27:10.505Z,0
2017-01-21T03:28:10.558Z,0
2017-01-21T03:29:10.452Z,0
2017-01-21T03:30:11.234Z,0
2017-01-21T03:31:10.394Z,0
2017-01-21T03:32:10.382Z,0
2017-01-21T03:33:09.934Z,0
2017-01-21T03:34:09.922Z,0
2017-01-21T03:35:10.729Z,0
2017-01-21T03:36:10.261Z,0
2017-01-21T03:37:10.737Z,0
2017-01-21T03:38:10.613Z,0
2017-01-21T03:39:10.679Z,0
2017-01-21T03:40:10.561Z,0
2017-01-21T03:41:10.576Z,0
2017-01-21T03:42:10.103Z,0
2017-01-21T03:43:10.097Z,0
2017-01-21T03:44:10.052Z,0
2017-01-21T03:45:10.016Z,0
2017-01-21T03:46:10.815Z,0
2017-01-21T03:47:10.441Z,0
2017-01-21T03:48:09.954Z,0
2017-01-21T03:49:10.325Z,0
2017-01-21T03:50:10.957Z,0
2017-01-21T03:51:10.002Z,0
2017-01-21T03:52:10.331Z,0
2017-01-21T03:53:10.252Z,0
2017-01-21T03:54:09.767Z,0
2017-01-21T03:55:09.745Z,0
2017-01-21T03:56:09.320Z,0
2017-01-21T03:57:10.094Z,0
2017-01-21T03:58:09.660Z,0
2017-01-21T03:59:10.061Z,0
2017-01-21T04:00:10.419Z,0
2017-01-21T04:01:09.985Z,0
2017-01-21T04:02:09.970Z,0
2017-01-21T04:03:09.928Z,0
2017-01-21T04:04:09.956Z,0
2017-01-21T04:05:09.494Z,0
2017-01-21T04:06:09.536Z,0
2017-01-21T04:07:09.855Z,0
2017-01-21T04:08:09.434Z,0
2017-01-21T04:09:10.169Z,0
2017-01-21T04:10:10.133Z,0
2017-01-21T04:11:10.153Z,0
2017-01-21T04:12:09.436Z,0
2017-01-21T04:13:09.663Z,0
2017-01-21T04:14:09.617Z,0
2017-01-21T04:15:09.216Z,0
2017-01-21T04:16:09.263Z,0
2017-01-21T04:17:09.129Z,0
2017-01-21T04:18:08.706Z,0
2017-01-21T04:19:09.499Z,0
2017-01-21T04:20:09.450Z,0
2017-01-21T04:21:09.026Z,0
2017-01-21T04:22:08.993Z,0
2017-01-21T04:23:09.396Z,0
2017-01-21T04:24:08.548Z,0
2017-01-21T04:25:09.333Z,0
2017-01-21T04:26:09.740Z,0
2017-01-21T04:27:08.051Z,0
2017-01-21T04:28:09.277Z,0
2017-01-21T04:29:08.812Z,0
2017-01-21T04:30:09.273Z,0
2017-01-21T04:31:08.752Z,0
2017-01-21T04:32:08.751Z,0
2017-01-21T04:33:09.113Z,0
2017-01-21T04:34:08.334Z,0
2017-01-21T04:35:09.051Z,0
2017-01-21T04:36:09.059Z,0
2017-01-21T04:37:09.029Z,0
2017-01-21T04:38:07.740Z,0
2017-01-21T04:39:07.735Z,0
2017-01-21T04:40:08.968Z,0
2017-01-21T04:41:08.477Z,0
2017-01-21T04:42:08.521Z,0
2017-01-21T04:43:09.237Z,0
2017-01-21T04:44:08.808Z,0
2017-01-21T04:45:08.774Z,0
2017-01-21T04:46:08.854Z,0
2017-01-21T04:47:08.714Z,0
2017-01-21T04:48:08.824Z,0
2017-01-21T04:49:08.257Z,0
2017-01-21T04:50:09.152Z,0
2017-01-21T04:51:08.602Z,0
2017-01-21T04:52:08.171Z,0
2017-01-21T04:53:08.948Z,0
2017-01-21T04:54:08.939Z,0
2017-01-21T04:55:08.495Z,0
2017-01-21T04:56:08.059Z,0
2017-01-21T04:57:08.498Z,0
2017-01-21T04:58:08.829Z,0
2017-01-21T04:59:08.434Z,0
2017-01-21T05:00:07.565Z,0
2017-01-21T05:01:07.925Z,0
2017-01-21T05:02:07.501Z,0
2017-01-21T05:03:08.276Z,0
2017-01-21T05:04:08.655Z,0
2017-01-21T05:05:08.624Z,0
2017-01-21T05:06:08.590Z,0
2017-01-21T05:07:07.783Z,0
2017-01-21T05:08:08.135Z,0
2017-01-21T05:09:08.183Z,0
2017-01-21T05:10:08.073Z,0
2017-01-21T05:11:08.461Z,0
2017-01-21T05:12:07.625Z,0
2017-01-21T05:13:08.056Z,0
2017-01-21T05:14:07.961Z,0
2017-01-21T05:15:07.945Z,0
2017-01-21T05:16:07.519Z,0
2017-01-21T05:17:08.282Z,0
2017-01-21T05:18:08.346Z,0
2017-01-21T05:19:07.835Z,0
2017-01-21T05:20:07.404Z,0
2017-01-21T05:21:07.768Z,0
2017-01-21T05:22:07.764Z,0
2017-01-21T05:23:07.315Z,0
2017-01-21T05:24:07.286Z,0
2017-01-21T05:25:07.643Z,0
2017-01-21T05:26:07.645Z,0
2017-01-21T05:27:08.004Z,0
2017-01-21T05:28:06.762Z,0
2017-01-21T05:29:07.949Z,0
2017-01-21T05:30:07.117Z,0
2017-01-21T05:31:07.101Z,0
2017-01-21T05:32:06.677Z,0
2017-01-21T05:33:07.145Z,0
2017-01-21T05:34:06.998Z,0
2017-01-21T05:35:06.969Z,0
2017-01-21T05:36:07.759Z,0
2017-01-21T05:37:07.367Z,0
2017-01-21T05:38:06.887Z,0
2017-01-21T05:39:07.695Z,0
2017-01-21T05:40:06.042Z,0
2017-01-21T05:41:07.625Z,0
2017-01-21T05:42:06.784Z,0
2017-01-21T05:43:07.175Z,0
2017-01-21T05:44:07.534Z,0
2017-01-21T05:45:06.780Z,0
2017-01-21T05:46:07.490Z,0
2017-01-21T05:47:07.061Z,0
2017-01-21T05:48:07.119Z,0
2017-01-21T05:49:07.421Z,0
2017-01-21T05:50:06.551Z,0
2017-01-21T05:51:07.071Z,0
2017-01-21T05:52:05.706Z,0
2017-01-21T05:53:06.516Z,0
2017-01-21T05:54:06.499Z,0
2017-01-21T05:55:06.438Z,0
2017-01-21T05:56:06.404Z,0
2017-01-21T05:57:06.353Z,0
2017-01-21T05:58:06.354Z,0
2017-01-21T05:59:06.719Z,0
2017-01-21T06:00:06.694Z,0
2017-01-21T06:01:06.655Z,0
2017-01-21T06:02:06.644Z,0
2017-01-21T06:03:06.673Z,0
2017-01-21T06:04:06.997Z,0
2017-01-21T06:05:06.543Z,0
2017-01-21T06:06:05.719Z,0
2017-01-21T06:07:06.162Z,0
2017-01-21T06:08:06.860Z,0
2017-01-21T06:09:05.636Z,0
2017-01-21T06:10:06.050Z,0
2017-01-21T06:11:06.781Z,0
2017-01-21T06:12:06.367Z,0
2017-01-21T06:13:06.728Z,0
2017-01-21T06:14:06.303Z,0
2017-01-21T06:15:06.667Z,0
2017-01-21T06:16:06.646Z,0
2017-01-21T06:17:06.616Z,0
2017-01-21T06:18:06.605Z,0
2017-01-21T06:19:06.156Z,0
2017-01-21T06:20:06.545Z,0
2017-01-21T06:21:06.112Z,0
2017-01-21T06:22:06.084Z,0
2017-01-21T06:23:06.044Z,0
2017-01-21T06:24:06.423Z,0
2017-01-21T06:25:06.419Z,0
2017-01-21T06:26:05.666Z,0
2017-01-21T06:27:06.349Z,0
2017-01-21T06:28:05.507Z,0
2017-01-21T06:29:05.469Z,0
2017-01-21T06:30:05.853Z,0
2017-01-21T06:31:05.929Z,0
2017-01-21T06:32:05.495Z,0
2017-01-21T06:33:05.384Z,0
2017-01-21T06:34:06.139Z,0
2017-01-21T06:35:05.786Z,0
2017-01-21T06:36:04.878Z,0
2017-01-21T06:37:05.310Z,0
2017-01-21T06:38:06.040Z,0
2017-01-21T06:39:05.599Z,0
2017-01-21T06:40:05.593Z,0
2017-01-21T06:41:05.142Z,0
2017-01-21T06:42:05.114Z,0
2017-01-21T06:43:04.681Z,0
2017-01-21T06:44:05.461Z,0
2017-01-21T06:45:05.070Z,0
2017-01-21T06:46:05.409Z,0
2017-01-21T06:47:05.379Z,0
2017-01-21T06:48:04.938Z,0
2017-01-21T06:49:05.008Z,0
2017-01-21T06:50:04.908Z,0
2017-01-21T06:51:04.855Z,0
2017-01-21T06:52:05.238Z,0
2017-01-21T06:53:05.196Z,0
2017-01-21T06:54:04.786Z,0
2017-01-21T06:55:04.801Z,0
2017-01-21T06:56:05.513Z,0
2017-01-21T06:57:05.079Z,0
2017-01-21T06:58:05.060Z,0
2017-01-21T06:59:04.651Z,0
2017-01-21T07:00:05.022Z,0
2017-01-21T07:01:04.165Z,0
2017-01-21T07:02:04.951Z,0
2017-01-21T07:03:04.118Z,0
2017-01-21T07:04:04.883Z,0
2017-01-21T07:05:04.869Z,0
2017-01-21T07:06:04.850Z,0
2017-01-21T07:07:04.818Z,0
2017-01-21T07:08:04.396Z,0
2017-01-21T07:09:04.754Z,0
2017-01-21T07:10:04.739Z,0
2017-01-21T07:11:04.293Z,0
2017-01-21T07:12:05.135Z,0
2017-01-21T07:13:04.643Z,0
2017-01-21T07:14:04.612Z,0
2017-01-21T07:15:04.596Z,0
2017-01-21T07:16:04.952Z,0
2017-01-21T07:17:04.943Z,5
2017-01-21T07:18:04.925Z,5
2017-01-21T07:19:04.521Z,5
2017-01-21T07:20:04.066Z,5
2017-01-21T07:21:03.617Z,5
2017-01-21T07:22:04.429Z,5
2017-01-21T07:23:03.625Z,5
2017-01-21T07:24:04.357Z,5
2017-01-21T07:25:03.107Z,5
2017-01-21T07:26:03.466Z,5
2017-01-21T07:27:04.647Z,10
2017-01-21T07:28:03.823Z,10
2017-01-21T07:29:03.851Z,10
2017-01-21T07:30:04.187Z,10
2017-01-21T07:31:03.344Z,10
2017-01-21T07:32:04.126Z,10
2017-01-21T07:33:04.103Z,15
2017-01-21T07:34:04.123Z,15
2017-01-21T07:35:03.629Z,15
2017-01-21T07:36:04.482Z,15
2017-01-21T07:37:02.765Z,15
2017-01-21T07:38:03.147Z,20
2017-01-21T07:39:03.953Z,20
2017-01-21T07:40:04.312Z,20
2017-01-21T07:41:03.479Z,20
2017-01-21T07:42:03.488Z,20
2017-01-21T07:43:03.417Z,25
2017-01-21T07:44:04.096Z,25
2017-01-21T07:45:03.038Z,25
2017-01-21T07:46:03.333Z,25
2017-01-21T07:47:03.695Z,30
2017-01-21T07:48:03.336Z,30
2017-01-21T07:49:03.335Z,30
2017-01-21T07:50:04.013Z,30
2017-01-21T07:51:03.985Z,35
2017-01-21T07:52:03.963Z,35
2017-01-21T07:53:03.633Z,35
2017-01-21T07:54:03.973Z,35
2017-01-21T07:55:03.882Z,40
2017-01-21T07:56:03.901Z,40
2017-01-21T07:57:03.421Z,40
2017-01-21T07:58:02.595Z,45
2017-01-21T07:59:03.793Z,45
2017-01-21T08:00:03.456Z,45
2017-01-21T08:01:03.318Z,45
2017-01-21T08:02:03.282Z,50
2017-01-21T08:03:03.701Z,50
2017-01-21T08:04:03.626Z,50
2017-01-21T08:05:03.619Z,55
2017-01-21T08:06:03.584Z,55
2017-01-21T08:07:02.335Z,55
2017-01-21T08:08:02.700Z,60
2017-01-21T08:09:02.693Z,60
2017-01-21T08:10:03.053Z,60
2017-01-21T08:11:02.655Z,60
2017-01-21T08:12:03.005Z,65
2017-01-21T08:13:02.981Z,65
2017-01-21T08:14:02.180Z,75
2017-01-21T08:15:03.415Z,135
2017-01-21T08:16:02.486Z,160
2017-01-21T08:17:02.476Z,130
2017-01-21T08:18:02.838Z,90
2017-01-21T08:19:02.407Z,80
2017-01-21T08:20:02.382Z,100
2017-01-21T08:21:02.764Z,145
2017-01-21T08:22:03.143Z,135
2017-01-21T08:23:03.112Z,155
2017-01-21T08:24:02.285Z,235
2017-01-21T08:25:02.247Z,175
2017-01-21T08:26:02.630Z,205
2017-01-21T08:27:03.112Z,235
2017-01-21T08:28:02.616Z,175
2017-01-21T08:29:02.540Z,195
2017-01-21T08:30:02.910Z,185
2017-01-21T08:31:02.479Z,220
2017-01-21T08:32:02.123Z,165
2017-01-21T08:33:01.627Z,170
2017-01-21T08:34:02.087Z,145
2017-01-21T08:35:02.384Z,195
2017-01-21T08:36:02.448Z,185
2017-01-21T08:37:02.341Z,210
2017-01-21T08:38:01.086Z,325
2017-01-21T08:39:01.916Z,265
2017-01-21T08:40:02.732Z,170
2017-01-21T08:41:02.352Z,180
2017-01-21T08:42:02.203Z,155
2017-01-21T08:43:02.180Z,165
2017-01-21T08:44:01.831Z,280
2017-01-21T08:45:01.743Z,405
2017-01-21T08:46:02.119Z,410
2017-01-21T08:47:02.079Z,525
2017-01-21T08:48:01.249Z,740
2017-01-21T08:49:02.447Z,565
2017-01-21T08:50:01.616Z,600
2017-01-21T08:51:01.626Z,630
2017-01-21T08:52:01.973Z,620
2017-01-21T08:53:01.577Z,650
2017-01-21T08:54:01.544Z,690
2017-01-21T08:55:01.888Z,680
2017-01-21T08:56:02.281Z,715
2017-01-21T08:57:01.850Z,750
2017-01-21T08:58:01.832Z,900
2017-01-21T08:59:01.397Z,960
2017-01-21T09:00:01.381Z,915
2017-01-21T09:01:01.411Z,925
2017-01-21T09:02:01.740Z,940
2017-01-21T09:03:02.134Z,945
2017-01-21T09:04:01.719Z,950
2017-01-21T09:05:02.087Z,1000
2017-01-21T09:06:02.089Z,990
2017-01-21T09:07:01.245Z,920
2017-01-21T09:08:01.273Z,895
2017-01-21T09:09:00.806Z,935
2017-01-21T09:10:02.046Z,960
2017-01-21T09:11:00.770Z,960
2017-01-21T09:12:01.610Z,980
2017-01-21T09:13:01.246Z,985
2017-01-21T09:14:01.924Z,1005
2017-01-21T09:15:01.914Z,1010
2017-01-21T09:16:01.078Z,1000
2017-01-21T09:17:01.486Z,1015
2017-01-21T09:18:01.915Z,1005
2017-01-21T09:19:01.850Z,1020
2017-01-21T09:20:01.422Z,1030
2017-01-21T09:21:01.402Z,1050
2017-01-21T09:22:01.820Z,1070
2017-01-21T09:23:01.380Z,1035
2017-01-21T09:24:01.777Z,1000
2017-01-21T09:25:01.368Z,1020
2017-01-21T09:26:01.351Z,1075
2017-01-21T09:27:01.337Z,1090
2017-01-21T09:28:00.926Z,1045
2017-01-21T09:29:00.893Z,990
2017-01-21T09:30:01.322Z,1040
2017-01-21T09:31:00.874Z,1065
2017-01-21T09:32:01.363Z,1045
2017-01-21T09:33:01.389Z,1080
2017-01-21T09:34:00.427Z,1075
2017-01-21T09:35:01.600Z,1025
2017-01-21T09:36:01.251Z,1050
2017-01-21T09:37:00.862Z,1010
2017-01-21T09:38:01.263Z,995
2017-01-21T09:39:01.563Z,1085
2017-01-21T09:40:01.636Z,1115
2017-01-21T09:41:01.115Z,1080
2017-01-21T09:42:01.653Z,1030
2017-01-21T09:43:01.502Z,1035
2017-01-21T09:44:01.087Z,1055
2017-01-21T09:45:01.054Z,1050
2017-01-21T09:46:01.162Z,1020
2017-01-21T09:47:00.633Z,1020
2017-01-21T09:48:00.243Z,1025
2017-01-21T09:49:01.003Z,1040
2017-01-21T09:50:01.410Z,1075
2017-01-21T09:51:00.570Z,1045
2017-01-21T09:52:00.600Z,970
2017-01-21T09:53:00.550Z,1005
2017-01-21T09:54:00.960Z,1110
2017-01-21T09:55:01.433Z,1135
2017-01-21T09:56:00.944Z,1020
2017-01-21T09:57:01.405Z,1055
2017-01-21T09:58:00.966Z,1045
2017-01-21T09:59:01.297Z,940
2017-01-21T10:00:00.962Z,970
2017-01-21T10:01:00.450Z,1015
2017-01-21T10:02:01.384Z,990
2017-01-21T10:03:01.238Z,1020
2017-01-21T10:04:00.393Z,1020
2017-01-21T10:05:01.203Z,955
2017-01-21T10:06:00.798Z,945
2017-01-21T10:07:00.760Z,955
2017-01-21T10:08:01.157Z,935
2017-01-21T10:09:01.149Z,875
2017-01-21T10:10:00.728Z,895
2017-01-21T10:11:00.700Z,965
2017-01-21T10:12:00.339Z,945
2017-01-21T10:13:01.084Z,945
2017-01-21T10:14:00.665Z,925
2017-01-21T10:15:00.665Z,885
2017-01-21T10:16:00.676Z,935
2017-01-21T10:17:00.229Z,935
2017-01-21T10:18:00.616Z,935
2017-01-21T10:19:00.603Z,935
2017-01-21T10:20:00.589Z,895
2017-01-21T10:21:00.573Z,960
2017-01-21T10:22:00.250Z,960
2017-01-21T10:22:59.847Z,850
2017-01-21T10:24:00.549Z,840
2017-01-21T10:24:59.815Z,810
2017-01-21T10:26:00.522Z,800
2017-01-21T10:27:00.499Z,820
2017-01-21T10:27:59.727Z,950
2017-01-21T10:29:00.888Z,865
2017-01-21T10:30:00.875Z,795
2017-01-21T10:31:00.053Z,740
2017-01-21T10:32:00.456Z,800
2017-01-21T10:33:00.433Z,800
2017-01-21T10:34:00.823Z,770
2017-01-21T10:35:00.001Z,810
2017-01-21T10:36:00.483Z,780
2017-01-21T10:37:00.811Z,775
2017-01-21T10:38:00.373Z,810
2017-01-21T10:39:00.351Z,790
2017-01-21T10:39:59.530Z,735
2017-01-21T10:40:59.921Z,715
2017-01-21T10:41:59.966Z,710
2017-01-21T10:43:00.309Z,685
2017-01-21T10:43:59.905Z,730
2017-01-21T10:45:00.339Z,725
2017-01-21T10:45:59.454Z,760
2017-01-21T10:47:00.280Z,745
2017-01-21T10:48:00.245Z,740
2017-01-21T10:49:00.632Z,775
2017-01-21T10:50:00.264Z,745
2017-01-21T10:51:00.191Z,665
2017-01-21T10:52:00.595Z,630
2017-01-21T10:52:59.414Z,620
2017-01-21T10:54:00.160Z,625
2017-01-21T10:55:00.569Z,760
2017-01-21T10:56:00.143Z,845
2017-01-21T10:56:59.721Z,565
2017-01-21T10:57:59.811Z,430
2017-01-21T10:59:00.108Z,425
2017-01-21T11:00:00.101Z,425
2017-01-21T11:01:00.071Z,440
2017-01-21T11:02:00.195Z,465
2017-01-21T11:02:59.287Z,475
2017-01-21T11:04:00.431Z,470
2017-01-21T11:05:00.028Z,480
2017-01-21T11:05:59.205Z,490
2017-01-21T11:07:00.403Z,530
2017-01-21T11:07:59.188Z,590
2017-01-21T11:08:59.978Z,660
2017-01-21T11:09:59.567Z,715
2017-01-21T11:10:59.542Z,805
2017-01-21T11:11:59.548Z,880
2017-01-21T11:12:59.193Z,870
2017-01-21T11:13:59.503Z,950
2017-01-21T11:14:58.706Z,1035
2017-01-21T11:16:00.294Z,1015
2017-01-21T11:16:59.064Z,1035
2017-01-21T11:17:59.475Z,1045
2017-01-21T11:19:00.255Z,985
2017-01-21T11:19:59.449Z,985
2017-01-21T11:20:59.423Z,1010
2017-01-21T11:22:00.239Z,990
2017-01-21T11:22:59.395Z,970
2017-01-21T11:24:00.182Z,955
2017-01-21T11:24:59.801Z,960
2017-01-21T11:25:59.499Z,955
2017-01-21T11:26:59.368Z,970
2017-01-21T11:28:00.195Z,1005
2017-01-21T11:29:00.117Z,1010
2017-01-21T11:29:59.307Z,990
2017-01-21T11:31:00.109Z,955
2017-01-21T11:32:00.079Z,950
2017-01-21T11:32:59.689Z,955
2017-01-21T11:34:00.068Z,955
2017-01-21T11:34:59.647Z,985
2017-01-21T11:35:59.237Z,945
2017-01-21T11:37:00.024Z,960
2017-01-21T11:37:59.657Z,950
2017-01-21T11:39:00.032Z,940
2017-01-21T11:39:59.986Z,940
2017-01-21T11:41:00.046Z,950
2017-01-21T11:41:59.575Z,955
2017-01-21T11:42:59.136Z,955
2017-01-21T11:43:59.546Z,955
2017-01-21T11:44:59.948Z,960
2017-01-21T11:45:59.535Z,955
2017-01-21T11:46:59.505Z,945
2017-01-21T11:47:59.882Z,900
2017-01-21T11:48:59.913Z,880
2017-01-21T11:49:59.453Z,930
2017-01-21T11:50:59.442Z,955
2017-01-21T11:51:59.423Z,955
2017-01-21T11:52:59.836Z,960
2017-01-21T11:53:59.399Z,965
2017-01-21T11:54:59.791Z,980
2017-01-21T11:55:58.985Z,970
2017-01-21T11:56:59.760Z,1010
2017-01-21T11:57:59.000Z,1015
2017-01-21T11:58:59.337Z,1005
2017-01-21T11:59:59.336Z,1025
2017-01-21T12:00:59.707Z,1100
2017-01-21T12:01:58.896Z,1140
2017-01-21T12:02:59.678Z,1170
2017-01-21T12:03:58.862Z,1145
2017-01-21T12:04:59.275Z,1160
2017-01-21T12:05:59.635Z,1205
2017-01-21T12:06:59.633Z,1230
2017-01-21T12:07:58.832Z,1200
2017-01-21T12:08:58.402Z,1170
2017-01-21T12:09:58.789Z,1150
2017-01-21T12:10:59.592Z,1145
2017-01-21T12:11:59.331Z,1160
2017-01-21T12:12:59.159Z,1180
2017-01-21T12:13:57.909Z,1190
2017-01-21T12:14:59.508Z,1175
2017-01-21T12:15:58.757Z,1180
2017-01-21T12:16:59.087Z,1165
2017-01-21T12:17:59.489Z,1130
2017-01-21T12:18:59.060Z,1110
2017-01-21T12:19:57.920Z,1070
2017-01-21T12:20:58.248Z,1030
2017-01-21T12:21:59.057Z,1020
2017-01-21T12:22:59.418Z,995
2017-01-21T12:23:59.406Z,1010
2017-01-21T12:24:58.986Z,1015
2017-01-21T12:25:59.031Z,1025
2017-01-21T12:26:59.520Z,1035
2017-01-21T12:27:58.567Z,1050
2017-01-21T12:28:59.325Z,1020
2017-01-21T12:29:59.024Z,1000
2017-01-21T12:30:59.294Z,990
2017-01-21T12:31:59.016Z,980
2017-01-21T12:32:58.446Z,980
2017-01-21T12:33:58.923Z,995
2017-01-21T12:34:58.491Z,1020
2017-01-21T12:35:58.517Z,1040
2017-01-21T12:36:58.821Z,990
2017-01-21T12:37:58.442Z,925
2017-01-21T12:38:59.230Z,900
2017-01-21T12:39:58.819Z,875
2017-01-21T12:40:58.760Z,895
2017-01-21T12:41:58.353Z,910
2017-01-21T12:42:58.312Z,905
2017-01-21T12:43:58.720Z,885
2017-01-21T12:44:58.697Z,855
2017-01-21T12:45:59.082Z,850
2017-01-21T12:46:58.656Z,845
2017-01-21T12:47:58.355Z,840
2017-01-21T12:48:58.643Z,830
2017-01-21T12:49:59.035Z,790
2017-01-21T12:50:58.605Z,770
2017-01-21T12:51:58.195Z,745
2017-01-21T12:52:59.023Z,745
2017-01-21T12:53:58.573Z,725
2017-01-21T12:54:58.140Z,690
2017-01-21T12:55:58.141Z,665
2017-01-21T12:56:58.981Z,665
2017-01-21T12:57:58.902Z,635
2017-01-21T12:58:58.504Z,575
2017-01-21T12:59:58.461Z,515
2017-01-21T13:00:58.462Z,480
2017-01-21T13:01:58.437Z,455
2017-01-21T13:02:58.042Z,445
2017-01-21T13:03:58.422Z,435
2017-01-21T13:04:57.608Z,425
2017-01-21T13:05:57.976Z,425
2017-01-21T13:06:58.785Z,435
2017-01-21T13:07:58.817Z,435
2017-01-21T13:08:57.564Z,435
2017-01-21T13:09:58.331Z,440
2017-01-21T13:10:57.914Z,450
2017-01-21T13:11:58.002Z,440
2017-01-21T13:12:57.908Z,415
2017-01-21T13:13:58.415Z,420
2017-01-21T13:14:58.254Z,430
2017-01-21T13:15:58.254Z,430
2017-01-21T13:16:58.664Z,415
2017-01-21T13:17:57.807Z,410
2017-01-21T13:18:57.771Z,405
2017-01-21T13:19:58.738Z,415
2017-01-21T13:20:58.140Z,430
2017-01-21T13:21:58.139Z,430
2017-01-21T13:22:57.730Z,440
2017-01-21T13:23:58.631Z,445
2017-01-21T13:24:57.680Z,460
2017-01-21T13:25:57.275Z,475
2017-01-21T13:26:58.053Z,455
2017-01-21T13:27:57.937Z,440
2017-01-21T13:28:58.085Z,450
2017-01-21T13:29:57.615Z,440
2017-01-21T13:30:58.414Z,430
2017-01-21T13:31:57.647Z,420
2017-01-21T13:32:57.964Z,420
2017-01-21T13:33:58.355Z,415
2017-01-21T13:34:58.391Z,405
2017-01-21T13:35:58.329Z,390
2017-01-21T13:36:57.544Z,390
2017-01-21T13:37:57.883Z,385
2017-01-21T13:38:57.905Z,375
2017-01-21T13:39:57.872Z,380
2017-01-21T13:40:57.432Z,375
2017-01-21T13:41:57.816Z,375
2017-01-21T13:42:57.793Z,370
2017-01-21T13:43:57.816Z,355
2017-01-21T13:44:57.505Z,345
2017-01-21T13:45:57.752Z,330
2017-01-21T13:46:57.728Z,325
2017-01-21T13:47:58.131Z,305
2017-01-21T13:48:57.697Z,295
2017-01-21T13:49:57.716Z,275
2017-01-21T13:50:56.936Z,280
2017-01-21T13:51:57.265Z,285
2017-01-21T13:52:57.634Z,270
2017-01-21T13:53:57.262Z,255
2017-01-21T13:54:57.809Z,245
2017-01-21T13:55:57.174Z,230
2017-01-21T13:56:57.619Z,230
2017-01-21T13:57:57.154Z,225
2017-01-21T13:58:57.153Z,215
2017-01-21T13:59:57.530Z,215
2017-01-21T14:00:57.900Z,220
2017-01-21T14:01:56.676Z,215
2017-01-21T14:02:57.564Z,205
2017-01-21T14:03:57.461Z,185
2017-01-21T14:04:57.469Z,170
2017-01-21T14:05:57.435Z,165
2017-01-21T14:06:57.397Z,155
2017-01-21T14:07:56.986Z,155
2017-01-21T14:08:57.776Z,155
2017-01-21T14:09:56.949Z,150
2017-01-21T14:10:57.335Z,150
2017-01-21T14:11:56.933Z,150
2017-01-21T14:12:56.906Z,145
2017-01-21T14:13:57.104Z,145
2017-01-21T14:14:57.384Z,145